sensor_id;sensor_type;location;lat;lon;timestamp;P1;durP1;ratioP1;P2;durP2;ratioP2
85603;SDS011;76031;53.256;5.762;2024-02-15T00:02:06;27.40;;;8.30;;
85603;SDS011;76031;53.256;5.762;2024-02-15T00:04:31;21.20;;;7.90;;
85603;SDS011;76031;53.256;5.762;2024-02-15T00:06:58;24.95;;;7.05;;
85603;SDS011;76031;53.256;5.762;2024-02-15T00:11:49;16.33;;;5.67;;
85603;SDS011;76031;53.256;5.762;2024-02-15T00:14:15;22.73;;;6.13;;
85603;SDS011;76031;53.256;5.762;2024-02-15T00:16:40;18.47;;;5.80;;
85603;SDS011;76031;53.256;5.762;2024-02-15T00:19:05;27.73;;;7.33;;
85603;SDS011;76031;53.256;5.762;2024-02-15T00:21:32;17.20;;;6.97;;
85603;SDS011;76031;53.256;5.762;2024-02-15T00:23:57;25.70;;;5.47;;
85603;SDS011;76031;53.256;5.762;2024-02-15T00:26:24;23.73;;;6.85;;
85603;SDS011;76031;53.256;5.762;2024-02-15T00:28:50;18.70;;;5.05;;
85603;SDS011;76031;53.256;5.762;2024-02-15T00:31:15;17.63;;;5.30;;
85603;SDS011;76031;53.256;5.762;2024-02-15T00:33:40;16.53;;;5.20;;
85603;SDS011;76031;53.256;5.762;2024-02-15T00:36:06;14.90;;;5.47;;
85603;SDS011;76031;53.256;5.762;2024-02-15T00:38:31;20.80;;;5.20;;
85603;SDS011;76031;53.256;5.762;2024-02-15T00:40:56;18.25;;;5.82;;
85603;SDS011;76031;53.256;5.762;2024-02-15T00:43:22;26.13;;;6.00;;
85603;SDS011;76031;53.256;5.762;2024-02-15T00:45:47;18.73;;;5.80;;
85603;SDS011;76031;53.256;5.762;2024-02-15T00:48:13;17.33;;;4.73;;
85603;SDS011;76031;53.256;5.762;2024-02-15T00:50:38;16.27;;;5.13;;
85603;SDS011;76031;53.256;5.762;2024-02-15T00:53:09;20.83;;;7.03;;
85603;SDS011;76031;53.256;5.762;2024-02-15T00:55:34;21.03;;;6.37;;
85603;SDS011;76031;53.256;5.762;2024-02-15T00:58:00;27.33;;;6.27;;
85603;SDS011;76031;53.256;5.762;2024-02-15T01:00:25;24.60;;;7.20;;
85603;SDS011;76031;53.256;5.762;2024-02-15T01:02:51;25.10;;;6.25;;
85603;SDS011;76031;53.256;5.762;2024-02-15T01:05:18;22.98;;;6.05;;
85603;SDS011;76031;53.256;5.762;2024-02-15T01:07:43;27.60;;;5.88;;
85603;SDS011;76031;53.256;5.762;2024-02-15T01:10:08;19.60;;;5.03;;
85603;SDS011;76031;53.256;5.762;2024-02-15T01:12:34;26.50;;;6.23;;
85603;SDS011;76031;53.256;5.762;2024-02-15T01:14:59;23.25;;;6.43;;
85603;SDS011;76031;53.256;5.762;2024-02-15T01:17:24;19.50;;;5.80;;
85603;SDS011;76031;53.256;5.762;2024-02-15T01:19:50;17.20;;;5.22;;
85603;SDS011;76031;53.256;5.762;2024-02-15T01:22:15;25.77;;;6.73;;
85603;SDS011;76031;53.256;5.762;2024-02-15T01:24:44;24.35;;;6.70;;
85603;SDS011;76031;53.256;5.762;2024-02-15T01:27:09;20.17;;;6.03;;
85603;SDS011;76031;53.256;5.762;2024-02-15T01:29:35;22.58;;;6.53;;
85603;SDS011;76031;53.256;5.762;2024-02-15T01:32:00;23.33;;;6.60;;
85603;SDS011;76031;53.256;5.762;2024-02-15T01:34:27;19.98;;;7.30;;
85603;SDS011;76031;53.256;5.762;2024-02-15T01:36:52;19.05;;;6.43;;
85603;SDS011;76031;53.256;5.762;2024-02-15T01:39:18;19.00;;;5.83;;
85603;SDS011;76031;53.256;5.762;2024-02-15T01:41:47;22.80;;;6.23;;
85603;SDS011;76031;53.256;5.762;2024-02-15T01:44:13;18.65;;;5.28;;
85603;SDS011;76031;53.256;5.762;2024-02-15T01:46:38;16.73;;;4.88;;
85603;SDS011;76031;53.256;5.762;2024-02-15T01:49:03;15.00;;;5.23;;
85603;SDS011;76031;53.256;5.762;2024-02-15T01:51:30;13.95;;;4.88;;
85603;SDS011;76031;53.256;5.762;2024-02-15T01:53:56;18.88;;;5.53;;
85603;SDS011;76031;53.256;5.762;2024-02-15T01:56:21;20.40;;;5.63;;
85603;SDS011;76031;53.256;5.762;2024-02-15T01:58:47;26.67;;;5.50;;
85603;SDS011;76031;53.256;5.762;2024-02-15T02:01:13;18.73;;;5.00;;
85603;SDS011;76031;53.256;5.762;2024-02-15T02:06:04;12.33;;;4.20;;
85603;SDS011;76031;53.256;5.762;2024-02-15T02:08:30;14.25;;;4.85;;
85603;SDS011;76031;53.256;5.762;2024-02-15T02:10:55;12.82;;;4.93;;
85603;SDS011;76031;53.256;5.762;2024-02-15T02:13:21;22.50;;;6.15;;
85603;SDS011;76031;53.256;5.762;2024-02-15T02:15:46;15.02;;;5.22;;
85603;SDS011;76031;53.256;5.762;2024-02-15T02:18:12;19.13;;;6.70;;
85603;SDS011;76031;53.256;5.762;2024-02-15T02:20:37;18.48;;;6.70;;
85603;SDS011;76031;53.256;5.762;2024-02-15T02:23:03;20.27;;;7.23;;
85603;SDS011;76031;53.256;5.762;2024-02-15T02:25:32;18.02;;;6.85;;
85603;SDS011;76031;53.256;5.762;2024-02-15T02:27:58;23.35;;;7.47;;
85603;SDS011;76031;53.256;5.762;2024-02-15T02:30:24;22.88;;;8.68;;
85603;SDS011;76031;53.256;5.762;2024-02-15T02:32:54;24.92;;;8.60;;
85603;SDS011;76031;53.256;5.762;2024-02-15T02:35:19;18.20;;;6.33;;
85603;SDS011;76031;53.256;5.762;2024-02-15T02:37:45;20.70;;;6.97;;
85603;SDS011;76031;53.256;5.762;2024-02-15T02:40:11;17.92;;;6.80;;
85603;SDS011;76031;53.256;5.762;2024-02-15T02:42:48;21.67;;;8.00;;
85603;SDS011;76031;53.256;5.762;2024-02-15T02:45:14;20.23;;;7.13;;
85603;SDS011;76031;53.256;5.762;2024-02-15T02:47:39;17.37;;;7.20;;
85603;SDS011;76031;53.256;5.762;2024-02-15T02:50:04;21.77;;;7.33;;
85603;SDS011;76031;53.256;5.762;2024-02-15T02:52:30;18.90;;;7.50;;
85603;SDS011;76031;53.256;5.762;2024-02-15T02:54:55;18.17;;;7.83;;
85603;SDS011;76031;53.256;5.762;2024-02-15T02:57:21;30.23;;;9.32;;
85603;SDS011;76031;53.256;5.762;2024-02-15T02:59:46;19.63;;;8.13;;
85603;SDS011;76031;53.256;5.762;2024-02-15T03:02:12;17.00;;;6.90;;
85603;SDS011;76031;53.256;5.762;2024-02-15T03:04:38;22.98;;;8.32;;
85603;SDS011;76031;53.256;5.762;2024-02-15T03:07:05;26.17;;;8.02;;
85603;SDS011;76031;53.256;5.762;2024-02-15T03:09:30;24.42;;;8.50;;
85603;SDS011;76031;53.256;5.762;2024-02-15T03:11:56;21.65;;;7.13;;
85603;SDS011;76031;53.256;5.762;2024-02-15T03:14:22;20.05;;;6.72;;
85603;SDS011;76031;53.256;5.762;2024-02-15T03:16:47;23.83;;;6.93;;
85603;SDS011;76031;53.256;5.762;2024-02-15T03:19:12;21.77;;;6.40;;
85603;SDS011;76031;53.256;5.762;2024-02-15T03:21:37;22.03;;;6.60;;
85603;SDS011;76031;53.256;5.762;2024-02-15T03:24:03;27.07;;;5.47;;
85603;SDS011;76031;53.256;5.762;2024-02-15T03:26:31;30.88;;;5.75;;
85603;SDS011;76031;53.256;5.762;2024-02-15T03:29:03;24.73;;;5.43;;
85603;SDS011;76031;53.256;5.762;2024-02-15T03:31:29;30.15;;;5.40;;
85603;SDS011;76031;53.256;5.762;2024-02-15T03:33:56;19.77;;;5.22;;
85603;SDS011;76031;53.256;5.762;2024-02-15T03:36:21;26.52;;;6.70;;
85603;SDS011;76031;53.256;5.762;2024-02-15T03:38:48;19.85;;;5.53;;
85603;SDS011;76031;53.256;5.762;2024-02-15T03:41:13;20.73;;;7.95;;
85603;SDS011;76031;53.256;5.762;2024-02-15T03:43:39;22.92;;;7.88;;
85603;SDS011;76031;53.256;5.762;2024-02-15T03:46:04;28.20;;;8.83;;
85603;SDS011;76031;53.256;5.762;2024-02-15T03:48:30;30.43;;;10.23;;
85603;SDS011;76031;53.256;5.762;2024-02-15T03:50:57;27.52;;;8.68;;
85603;SDS011;76031;53.256;5.762;2024-02-15T03:55:48;29.52;;;7.60;;
85603;SDS011;76031;53.256;5.762;2024-02-15T03:58:14;30.30;;;8.82;;
85603;SDS011;76031;53.256;5.762;2024-02-15T04:00:40;25.80;;;8.20;;
85603;SDS011;76031;53.256;5.762;2024-02-15T04:03:05;26.17;;;8.07;;
85603;SDS011;76031;53.256;5.762;2024-02-15T04:05:31;32.60;;;9.60;;
85603;SDS011;76031;53.256;5.762;2024-02-15T04:07:56;24.40;;;9.07;;
85603;SDS011;76031;53.256;5.762;2024-02-15T04:10:21;27.43;;;8.90;;
85603;SDS011;76031;53.256;5.762;2024-02-15T04:12:47;29.77;;;9.20;;
85603;SDS011;76031;53.256;5.762;2024-02-15T04:15:12;26.65;;;10.40;;
85603;SDS011;76031;53.256;5.762;2024-02-15T04:17:43;32.08;;;11.65;;
85603;SDS011;76031;53.256;5.762;2024-02-15T04:20:10;30.92;;;10.52;;
85603;SDS011;76031;53.256;5.762;2024-02-15T04:22:37;30.75;;;10.27;;
85603;SDS011;76031;53.256;5.762;2024-02-15T04:25:04;34.63;;;9.38;;
85603;SDS011;76031;53.256;5.762;2024-02-15T04:27:29;33.08;;;9.23;;
85603;SDS011;76031;53.256;5.762;2024-02-15T04:29:54;29.70;;;8.43;;
85603;SDS011;76031;53.256;5.762;2024-02-15T04:32:20;35.83;;;8.40;;
85603;SDS011;76031;53.256;5.762;2024-02-15T04:34:46;25.98;;;8.20;;
85603;SDS011;76031;53.256;5.762;2024-02-15T04:37:11;38.30;;;10.23;;
85603;SDS011;76031;53.256;5.762;2024-02-15T04:39:38;29.55;;;8.90;;
85603;SDS011;76031;53.256;5.762;2024-02-15T04:42:03;33.78;;;10.32;;
85603;SDS011;76031;53.256;5.762;2024-02-15T04:44:31;30.40;;;11.23;;
85603;SDS011;76031;53.256;5.762;2024-02-15T04:47:00;34.97;;;11.85;;
85603;SDS011;76031;53.256;5.762;2024-02-15T04:49:25;35.75;;;13.52;;
85603;SDS011;76031;53.256;5.762;2024-02-15T04:51:54;37.75;;;13.45;;
85603;SDS011;76031;53.256;5.762;2024-02-15T04:54:19;32.28;;;11.80;;
85603;SDS011;76031;53.256;5.762;2024-02-15T04:56:44;32.17;;;12.03;;
85603;SDS011;76031;53.256;5.762;2024-02-15T04:59:11;34.95;;;12.52;;
85603;SDS011;76031;53.256;5.762;2024-02-15T05:01:40;38.72;;;14.13;;
85603;SDS011;76031;53.256;5.762;2024-02-15T05:04:08;30.98;;;13.93;;
85603;SDS011;76031;53.256;5.762;2024-02-15T05:06:33;29.70;;;12.80;;
85603;SDS011;76031;53.256;5.762;2024-02-15T05:08:59;38.38;;;12.35;;
85603;SDS011;76031;53.256;5.762;2024-02-15T05:11:32;29.40;;;11.63;;
85603;SDS011;76031;53.256;5.762;2024-02-15T05:13:57;33.03;;;12.70;;
85603;SDS011;76031;53.256;5.762;2024-02-15T05:16:24;34.85;;;13.75;;
85603;SDS011;76031;53.256;5.762;2024-02-15T05:18:50;29.40;;;13.02;;
85603;SDS011;76031;53.256;5.762;2024-02-15T05:21:15;33.73;;;12.97;;
85603;SDS011;76031;53.256;5.762;2024-02-15T05:23:40;31.83;;;12.30;;
85603;SDS011;76031;53.256;5.762;2024-02-15T05:28:32;28.23;;;11.30;;
85603;SDS011;76031;53.256;5.762;2024-02-15T05:33:45;36.58;;;11.95;;
85603;SDS011;76031;53.256;5.762;2024-02-15T05:36:12;31.50;;;12.38;;
85603;SDS011;76031;53.256;5.762;2024-02-15T05:38:38;34.13;;;13.52;;
85603;SDS011;76031;53.256;5.762;2024-02-15T05:41:04;30.70;;;13.63;;
85603;SDS011;76031;53.256;5.762;2024-02-15T05:43:29;37.57;;;14.37;;
85603;SDS011;76031;53.256;5.762;2024-02-15T05:45:55;34.53;;;13.98;;
85603;SDS011;76031;53.256;5.762;2024-02-15T05:48:23;37.35;;;14.18;;
85603;SDS011;76031;53.256;5.762;2024-02-15T05:50:48;33.60;;;14.37;;
85603;SDS011;76031;53.256;5.762;2024-02-15T05:53:13;37.28;;;14.23;;
85603;SDS011;76031;53.256;5.762;2024-02-15T05:55:39;34.83;;;14.23;;
85603;SDS011;76031;53.256;5.762;2024-02-15T05:58:09;34.45;;;14.73;;
85603;SDS011;76031;53.256;5.762;2024-02-15T06:00:36;35.22;;;13.57;;
85603;SDS011;76031;53.256;5.762;2024-02-15T06:03:04;41.97;;;15.75;;
85603;SDS011;76031;53.256;5.762;2024-02-15T06:05:29;40.08;;;15.63;;
85603;SDS011;76031;53.256;5.762;2024-02-15T06:07:54;43.80;;;15.77;;
85603;SDS011;76031;53.256;5.762;2024-02-15T06:10:20;45.97;;;16.03;;
85603;SDS011;76031;53.256;5.762;2024-02-15T06:12:45;40.58;;;14.75;;
85603;SDS011;76031;53.256;5.762;2024-02-15T06:15:10;41.03;;;16.17;;
85603;SDS011;76031;53.256;5.762;2024-02-15T06:17:46;36.83;;;15.07;;
85603;SDS011;76031;53.256;5.762;2024-02-15T06:20:14;46.33;;;16.35;;
85603;SDS011;76031;53.256;5.762;2024-02-15T06:22:40;41.53;;;14.10;;
85603;SDS011;76031;53.256;5.762;2024-02-15T06:25:06;43.30;;;15.05;;
85603;SDS011;76031;53.256;5.762;2024-02-15T06:27:31;37.35;;;12.82;;
85603;SDS011;76031;53.256;5.762;2024-02-15T06:29:57;37.50;;;14.52;;
85603;SDS011;76031;53.256;5.762;2024-02-15T06:32:41;33.83;;;14.10;;
85603;SDS011;76031;53.256;5.762;2024-02-15T06:35:25;44.08;;;15.05;;
85603;SDS011;76031;53.256;5.762;2024-02-15T06:38:09;35.47;;;15.85;;
85603;SDS011;76031;53.256;5.762;2024-02-15T06:40:53;45.80;;;17.45;;
85603;SDS011;76031;53.256;5.762;2024-02-15T06:45:44;52.97;;;18.13;;
85603;SDS011;76031;53.256;5.762;2024-02-15T06:48:11;44.60;;;15.25;;
85603;SDS011;76031;53.256;5.762;2024-02-15T06:50:37;41.10;;;15.93;;
85603;SDS011;76031;53.256;5.762;2024-02-15T06:53:02;43.25;;;16.48;;
85603;SDS011;76031;53.256;5.762;2024-02-15T06:55:28;44.60;;;15.10;;
85603;SDS011;76031;53.256;5.762;2024-02-15T06:57:53;46.37;;;16.07;;
85603;SDS011;76031;53.256;5.762;2024-02-15T07:00:20;42.55;;;15.63;;
85603;SDS011;76031;53.256;5.762;2024-02-15T07:02:45;46.67;;;17.48;;
85603;SDS011;76031;53.256;5.762;2024-02-15T07:05:13;37.85;;;15.88;;
85603;SDS011;76031;53.256;5.762;2024-02-15T07:07:39;44.42;;;15.80;;
85603;SDS011;76031;53.256;5.762;2024-02-15T07:10:05;46.25;;;16.80;;
85603;SDS011;76031;53.256;5.762;2024-02-15T07:12:30;45.17;;;16.48;;
85603;SDS011;76031;53.256;5.762;2024-02-15T07:14:57;46.85;;;16.75;;
85603;SDS011;76031;53.256;5.762;2024-02-15T07:17:23;40.67;;;15.27;;
85603;SDS011;76031;53.256;5.762;2024-02-15T07:19:48;48.72;;;16.83;;
85603;SDS011;76031;53.256;5.762;2024-02-15T07:22:14;38.33;;;14.70;;
85603;SDS011;76031;53.256;5.762;2024-02-15T07:24:43;49.55;;;17.17;;
85603;SDS011;76031;53.256;5.762;2024-02-15T07:27:08;47.72;;;16.08;;
85603;SDS011;76031;53.256;5.762;2024-02-15T07:29:35;48.80;;;16.23;;
85603;SDS011;76031;53.256;5.762;2024-02-15T07:32:03;44.00;;;15.52;;
85603;SDS011;76031;53.256;5.762;2024-02-15T07:34:31;40.17;;;16.23;;
85603;SDS011;76031;53.256;5.762;2024-02-15T07:36:57;51.17;;;16.13;;
85603;SDS011;76031;53.256;5.762;2024-02-15T07:39:23;38.65;;;15.20;;
85603;SDS011;76031;53.256;5.762;2024-02-15T07:41:52;42.90;;;15.40;;
85603;SDS011;76031;53.256;5.762;2024-02-15T07:44:18;41.33;;;16.33;;
85603;SDS011;76031;53.256;5.762;2024-02-15T07:46:43;37.83;;;14.27;;
85603;SDS011;76031;53.256;5.762;2024-02-15T07:49:09;35.33;;;14.10;;
85603;SDS011;76031;53.256;5.762;2024-02-15T07:51:34;37.20;;;15.10;;
85603;SDS011;76031;53.256;5.762;2024-02-15T07:54:01;36.40;;;13.95;;
85603;SDS011;76031;53.256;5.762;2024-02-15T07:56:26;40.30;;;15.07;;
85603;SDS011;76031;53.256;5.762;2024-02-15T07:58:52;35.60;;;14.10;;
85603;SDS011;76031;53.256;5.762;2024-02-15T08:01:17;34.25;;;13.52;;
85603;SDS011;76031;53.256;5.762;2024-02-15T08:03:46;35.85;;;13.18;;
85603;SDS011;76031;53.256;5.762;2024-02-15T08:06:11;28.65;;;11.88;;
85603;SDS011;76031;53.256;5.762;2024-02-15T08:08:41;33.78;;;13.90;;
85603;SDS011;76031;53.256;5.762;2024-02-15T08:11:07;42.60;;;15.10;;
85603;SDS011;76031;53.256;5.762;2024-02-15T08:13:49;42.28;;;14.90;;
85603;SDS011;76031;53.256;5.762;2024-02-15T08:16:21;53.10;;;17.27;;
85603;SDS011;76031;53.256;5.762;2024-02-15T08:18:55;45.25;;;16.70;;
85603;SDS011;76031;53.256;5.762;2024-02-15T08:21:30;44.13;;;16.85;;
85603;SDS011;76031;53.256;5.762;2024-02-15T08:24:01;46.00;;;16.45;;
85603;SDS011;76031;53.256;5.762;2024-02-15T08:26:33;41.05;;;14.57;;
85603;SDS011;76031;53.256;5.762;2024-02-15T08:29:00;51.03;;;18.60;;
85603;SDS011;76031;53.256;5.762;2024-02-15T08:31:25;45.47;;;16.80;;
85603;SDS011;76031;53.256;5.762;2024-02-15T08:33:51;56.57;;;18.20;;
85603;SDS011;76031;53.256;5.762;2024-02-15T08:36:16;46.57;;;17.40;;
85603;SDS011;76031;53.256;5.762;2024-02-15T08:38:41;39.93;;;13.80;;
85603;SDS011;76031;53.256;5.762;2024-02-15T08:41:07;47.33;;;15.50;;
85603;SDS011;76031;53.256;5.762;2024-02-15T08:43:33;48.08;;;17.35;;
85603;SDS011;76031;53.256;5.762;2024-02-15T08:45:58;44.17;;;15.80;;
85603;SDS011;76031;53.256;5.762;2024-02-15T08:48:24;44.33;;;15.10;;
85603;SDS011;76031;53.256;5.762;2024-02-15T08:50:49;47.40;;;17.73;;
85603;SDS011;76031;53.256;5.762;2024-02-15T08:53:14;49.47;;;19.48;;
85603;SDS011;76031;53.256;5.762;2024-02-15T08:55:40;45.65;;;16.35;;
85603;SDS011;76031;53.256;5.762;2024-02-15T08:58:06;44.08;;;17.55;;
85603;SDS011;76031;53.256;5.762;2024-02-15T09:00:31;46.87;;;16.77;;
85603;SDS011;76031;53.256;5.762;2024-02-15T09:02:56;46.25;;;16.88;;
85603;SDS011;76031;53.256;5.762;2024-02-15T09:05:22;45.38;;;15.60;;
85603;SDS011;76031;53.256;5.762;2024-02-15T09:07:47;41.72;;;16.67;;
85603;SDS011;76031;53.256;5.762;2024-02-15T09:10:13;42.70;;;15.67;;
85603;SDS011;76031;53.256;5.762;2024-02-15T09:12:39;43.83;;;16.52;;
85603;SDS011;76031;53.256;5.762;2024-02-15T09:15:08;42.42;;;16.13;;
85603;SDS011;76031;53.256;5.762;2024-02-15T09:17:37;36.00;;;16.25;;
85603;SDS011;76031;53.256;5.762;2024-02-15T09:20:07;39.13;;;15.23;;
85603;SDS011;76031;53.256;5.762;2024-02-15T09:22:34;38.42;;;15.45;;
85603;SDS011;76031;53.256;5.762;2024-02-15T09:25:01;38.58;;;15.80;;
85603;SDS011;76031;53.256;5.762;2024-02-15T09:27:26;34.35;;;14.38;;
85603;SDS011;76031;53.256;5.762;2024-02-15T09:29:52;31.03;;;14.13;;
85603;SDS011;76031;53.256;5.762;2024-02-15T09:32:17;31.70;;;13.93;;
85603;SDS011;76031;53.256;5.762;2024-02-15T09:34:42;34.40;;;14.40;;
85603;SDS011;76031;53.256;5.762;2024-02-15T09:37:07;32.40;;;13.50;;
85603;SDS011;76031;53.256;5.762;2024-02-15T09:39:33;25.58;;;11.90;;
85603;SDS011;76031;53.256;5.762;2024-02-15T09:41:58;25.83;;;12.23;;
85603;SDS011;76031;53.256;5.762;2024-02-15T09:44:26;26.65;;;11.50;;
85603;SDS011;76031;53.256;5.762;2024-02-15T09:47:13;22.88;;;10.32;;
85603;SDS011;76031;53.256;5.762;2024-02-15T09:49:38;23.63;;;10.43;;
85603;SDS011;76031;53.256;5.762;2024-02-15T09:52:07;24.08;;;11.45;;
85603;SDS011;76031;53.256;5.762;2024-02-15T09:54:42;19.15;;;9.15;;
85603;SDS011;76031;53.256;5.762;2024-02-15T09:57:08;21.25;;;9.43;;
85603;SDS011;76031;53.256;5.762;2024-02-15T10:02:01;22.38;;;9.98;;
85603;SDS011;76031;53.256;5.762;2024-02-15T10:04:27;20.38;;;8.88;;
85603;SDS011;76031;53.256;5.762;2024-02-15T10:06:52;21.13;;;9.45;;
85603;SDS011;76031;53.256;5.762;2024-02-15T10:09:24;20.97;;;9.97;;
85603;SDS011;76031;53.256;5.762;2024-02-15T10:11:56;19.02;;;9.00;;
85603;SDS011;76031;53.256;5.762;2024-02-15T10:14:22;18.95;;;8.52;;
85603;SDS011;76031;53.256;5.762;2024-02-15T10:16:48;18.50;;;8.98;;
85603;SDS011;76031;53.256;5.762;2024-02-15T10:19:15;16.08;;;8.07;;
85603;SDS011;76031;53.256;5.762;2024-02-15T10:21:41;18.63;;;9.38;;
85603;SDS011;76031;53.256;5.762;2024-02-15T10:24:06;21.17;;;9.40;;
85603;SDS011;76031;53.256;5.762;2024-02-15T10:26:32;19.15;;;8.38;;
85603;SDS011;76031;53.256;5.762;2024-02-15T10:29:06;21.30;;;9.73;;
85603;SDS011;76031;53.256;5.762;2024-02-15T10:31:34;17.45;;;8.98;;
85603;SDS011;76031;53.256;5.762;2024-02-15T10:34:04;18.50;;;9.65;;
85603;SDS011;76031;53.256;5.762;2024-02-15T10:36:30;21.98;;;9.63;;
85603;SDS011;76031;53.256;5.762;2024-02-15T10:41:51;15.98;;;9.43;;
85603;SDS011;76031;53.256;5.762;2024-02-15T10:44:21;22.02;;;10.32;;
85603;SDS011;76031;53.256;5.762;2024-02-15T10:46:48;18.63;;;9.20;;
85603;SDS011;76031;53.256;5.762;2024-02-15T10:49:17;20.08;;;9.90;;
85603;SDS011;76031;53.256;5.762;2024-02-15T10:51:43;18.15;;;8.77;;
85603;SDS011;76031;53.256;5.762;2024-02-15T10:54:11;18.40;;;9.45;;
85603;SDS011;76031;53.256;5.762;2024-02-15T10:56:38;19.25;;;10.05;;
85603;SDS011;76031;53.256;5.762;2024-02-15T10:59:18;16.45;;;9.45;;
85603;SDS011;76031;53.256;5.762;2024-02-15T11:01:45;16.80;;;9.18;;
85603;SDS011;76031;53.256;5.762;2024-02-15T11:04:14;19.33;;;9.77;;
85603;SDS011;76031;53.256;5.762;2024-02-15T11:06:41;17.45;;;9.13;;
85603;SDS011;76031;53.256;5.762;2024-02-15T11:09:08;18.35;;;9.60;;
85603;SDS011;76031;53.256;5.762;2024-02-15T11:11:33;18.17;;;9.68;;
85603;SDS011;76031;53.256;5.762;2024-02-15T11:16:43;22.50;;;10.45;;
85603;SDS011;76031;53.256;5.762;2024-02-15T11:19:09;15.75;;;8.55;;
85603;SDS011;76031;53.256;5.762;2024-02-15T11:22:09;19.27;;;10.60;;
85603;SDS011;76031;53.256;5.762;2024-02-15T11:24:32;17.25;;;8.88;;
85603;SDS011;76031;53.256;5.762;2024-02-15T11:26:58;19.08;;;9.05;;
85603;SDS011;76031;53.256;5.762;2024-02-15T11:34:43;23.63;;;10.25;;
85603;SDS011;76031;53.256;5.762;2024-02-15T11:39:59;20.98;;;9.82;;
85603;SDS011;76031;53.256;5.762;2024-02-15T11:42:30;26.23;;;11.60;;
85603;SDS011;76031;53.256;5.762;2024-02-15T11:45:02;25.33;;;11.90;;
85603;SDS011;76031;53.256;5.762;2024-02-15T11:47:30;26.63;;;11.00;;
85603;SDS011;76031;53.256;5.762;2024-02-15T11:49:59;27.08;;;11.20;;
85603;SDS011;76031;53.256;5.762;2024-02-15T11:52:24;31.38;;;12.63;;
85603;SDS011;76031;53.256;5.762;2024-02-15T11:54:49;34.87;;;11.87;;
85603;SDS011;76031;53.256;5.762;2024-02-15T11:57:15;39.37;;;12.43;;
85603;SDS011;76031;53.256;5.762;2024-02-15T11:59:47;45.03;;;13.95;;
85603;SDS011;76031;53.256;5.762;2024-02-15T12:05:22;36.25;;;11.75;;
85603;SDS011;76031;53.256;5.762;2024-02-15T12:08:07;50.35;;;15.45;;
85603;SDS011;76031;53.256;5.762;2024-02-15T12:13:35;45.67;;;13.73;;
85603;SDS011;76031;53.256;5.762;2024-02-15T12:16:19;44.20;;;13.40;;
85603;SDS011;76031;53.256;5.762;2024-02-15T12:19:03;52.67;;;15.85;;
85603;SDS011;76031;53.256;5.762;2024-02-15T12:21:28;50.05;;;15.52;;
85603;SDS011;76031;53.256;5.762;2024-02-15T12:23:54;39.45;;;12.75;;
85603;SDS011;76031;53.256;5.762;2024-02-15T12:28:52;43.10;;;15.70;;
85603;SDS011;76031;53.256;5.762;2024-02-15T12:31:23;39.40;;;15.55;;
85603;SDS011;76031;53.256;5.762;2024-02-15T12:34:12;38.35;;;15.50;;
85603;SDS011;76031;53.256;5.762;2024-02-15T12:36:37;38.58;;;14.93;;
85603;SDS011;76031;53.256;5.762;2024-02-15T12:39:03;42.37;;;15.67;;
85603;SDS011;76031;53.256;5.762;2024-02-15T12:41:37;40.60;;;17.75;;
85603;SDS011;76031;53.256;5.762;2024-02-15T12:44:02;42.13;;;16.55;;
85603;SDS011;76031;53.256;5.762;2024-02-15T12:49:39;33.10;;;14.17;;
85603;SDS011;76031;53.256;5.762;2024-02-15T12:51:39;47.55;;;16.67;;
85603;SDS011;76031;53.256;5.762;2024-02-15T12:56:30;37.33;;;15.77;;
85603;SDS011;76031;53.256;5.762;2024-02-15T12:58:56;37.27;;;15.37;;
85603;SDS011;76031;53.256;5.762;2024-02-15T13:01:23;45.25;;;16.33;;
85603;SDS011;76031;53.256;5.762;2024-02-15T13:03:51;43.10;;;17.63;;
85603;SDS011;76031;53.256;5.762;2024-02-15T13:06:16;37.58;;;16.27;;
85603;SDS011;76031;53.256;5.762;2024-02-15T13:08:43;43.92;;;16.52;;
85603;SDS011;76031;53.256;5.762;2024-02-15T13:11:13;44.72;;;16.60;;
85603;SDS011;76031;53.256;5.762;2024-02-15T13:13:40;39.95;;;16.17;;
85603;SDS011;76031;53.256;5.762;2024-02-15T13:16:07;41.13;;;17.40;;
85603;SDS011;76031;53.256;5.762;2024-02-15T13:18:33;37.88;;;16.60;;
85603;SDS011;76031;53.256;5.762;2024-02-15T13:20:58;35.97;;;14.00;;
85603;SDS011;76031;53.256;5.762;2024-02-15T13:23:23;43.60;;;18.03;;
85603;SDS011;76031;53.256;5.762;2024-02-15T13:25:50;33.92;;;14.98;;
85603;SDS011;76031;53.256;5.762;2024-02-15T13:28:17;35.35;;;16.38;;
85603;SDS011;76031;53.256;5.762;2024-02-15T13:30:43;37.58;;;15.50;;
85603;SDS011;76031;53.256;5.762;2024-02-15T13:33:10;40.35;;;16.85;;
85603;SDS011;76031;53.256;5.762;2024-02-15T13:35:35;39.90;;;16.15;;
85603;SDS011;76031;53.256;5.762;2024-02-15T13:38:01;36.72;;;16.27;;
85603;SDS011;76031;53.256;5.762;2024-02-15T13:40:27;41.63;;;16.27;;
85603;SDS011;76031;53.256;5.762;2024-02-15T13:42:55;41.75;;;16.45;;
85603;SDS011;76031;53.256;5.762;2024-02-15T13:45:24;42.75;;;16.90;;
85603;SDS011;76031;53.256;5.762;2024-02-15T13:47:50;47.95;;;19.20;;
85603;SDS011;76031;53.256;5.762;2024-02-15T13:50:15;48.92;;;17.35;;
85603;SDS011;76031;53.256;5.762;2024-02-15T13:52:45;39.00;;;16.58;;
85603;SDS011;76031;53.256;5.762;2024-02-15T13:55:14;52.28;;;18.95;;
85603;SDS011;76031;53.256;5.762;2024-02-15T13:57:40;48.28;;;18.30;;
85603;SDS011;76031;53.256;5.762;2024-02-15T14:00:07;44.03;;;17.77;;
85603;SDS011;76031;53.256;5.762;2024-02-15T14:02:38;42.30;;;17.05;;
85603;SDS011;76031;53.256;5.762;2024-02-15T14:05:03;46.22;;;19.52;;
85603;SDS011;76031;53.256;5.762;2024-02-15T14:07:33;51.78;;;19.60;;
85603;SDS011;76031;53.256;5.762;2024-02-15T14:09:58;51.78;;;20.15;;
85603;SDS011;76031;53.256;5.762;2024-02-15T14:12:23;50.63;;;18.83;;
85603;SDS011;76031;53.256;5.762;2024-02-15T14:14:49;48.97;;;18.77;;
85603;SDS011;76031;53.256;5.762;2024-02-15T14:17:14;45.30;;;18.47;;
85603;SDS011;76031;53.256;5.762;2024-02-15T14:19:40;43.03;;;17.95;;
85603;SDS011;76031;53.256;5.762;2024-02-15T14:22:05;43.75;;;17.60;;
85603;SDS011;76031;53.256;5.762;2024-02-15T14:24:34;39.97;;;18.75;;
85603;SDS011;76031;53.256;5.762;2024-02-15T14:26:59;46.77;;;17.97;;
85603;SDS011;76031;53.256;5.762;2024-02-15T14:29:24;41.57;;;18.10;;
85603;SDS011;76031;53.256;5.762;2024-02-15T14:31:54;49.40;;;17.73;;
85603;SDS011;76031;53.256;5.762;2024-02-15T14:34:38;38.42;;;15.90;;
85603;SDS011;76031;53.256;5.762;2024-02-15T14:37:06;41.22;;;16.80;;
85603;SDS011;76031;53.256;5.762;2024-02-15T14:39:31;39.37;;;16.77;;
85603;SDS011;76031;53.256;5.762;2024-02-15T14:41:56;40.03;;;16.53;;
85603;SDS011;76031;53.256;5.762;2024-02-15T14:44:21;34.90;;;14.97;;
85603;SDS011;76031;53.256;5.762;2024-02-15T14:46:48;37.30;;;14.25;;
85603;SDS011;76031;53.256;5.762;2024-02-15T14:49:13;30.97;;;13.57;;
85603;SDS011;76031;53.256;5.762;2024-02-15T14:51:39;27.07;;;12.70;;
85603;SDS011;76031;53.256;5.762;2024-02-15T14:54:04;28.65;;;14.25;;
85603;SDS011;76031;53.256;5.762;2024-02-15T14:56:30;29.80;;;14.33;;
85603;SDS011;76031;53.256;5.762;2024-02-15T14:58:57;27.65;;;14.48;;
85603;SDS011;76031;53.256;5.762;2024-02-15T15:01:22;27.05;;;14.20;;
85603;SDS011;76031;53.256;5.762;2024-02-15T15:03:52;33.03;;;14.30;;
85603;SDS011;76031;53.256;5.762;2024-02-15T15:06:20;32.35;;;13.73;;
85603;SDS011;76031;53.256;5.762;2024-02-15T15:09:04;28.30;;;13.15;;
85603;SDS011;76031;53.256;5.762;2024-02-15T15:11:48;27.20;;;13.57;;